sensor_id;sensor_type;location;lat;lon;timestamp;P1;durP1;ratioP1;P2;durP2;ratioP2
49241;SDS011;35079;52.704;13.814;2022-08-01T00:00:59;4.88;;;4.13;;
49241;SDS011;35079;52.704;13.814;2022-08-01T00:03:36;5.13;;;4.20;;
49241;SDS011;35079;52.704;13.814;2022-08-01T00:06:02;5.15;;;3.78;;
49241;SDS011;35079;52.704;13.814;2022-08-01T00:08:46;3.77;;;3.47;;
49241;SDS011;35079;52.704;13.814;2022-08-01T00:11:15;4.35;;;3.45;;
49241;SDS011;35079;52.704;13.814;2022-08-01T00:13:41;3.75;;;3.40;;
49241;SDS011;35079;52.704;13.814;2022-08-01T00:16:36;6.65;;;3.33;;
49241;SDS011;35079;52.704;13.814;2022-08-01T00:19:14;4.85;;;3.25;;
49241;SDS011;35079;52.704;13.814;2022-08-01T00:21:40;5.18;;;3.50;;
49241;SDS011;35079;52.704;13.814;2022-08-01T00:24:06;4.97;;;3.70;;
49241;SDS011;35079;52.704;13.814;2022-08-01T00:26:32;5.30;;;3.47;;
49241;SDS011;35079;52.704;13.814;2022-08-01T00:28:58;4.82;;;3.88;;
49241;SDS011;35079;52.704;13.814;2022-08-01T00:31:23;5.15;;;3.65;;
49241;SDS011;35079;52.704;13.814;2022-08-01T00:33:49;6.00;;;3.67;;
49241;SDS011;35079;52.704;13.814;2022-08-01T00:36:15;6.32;;;3.90;;
49241;SDS011;35079;52.704;13.814;2022-08-01T00:38:40;6.20;;;4.00;;
49241;SDS011;35079;52.704;13.814;2022-08-01T00:41:06;6.63;;;3.80;;
49241;SDS011;35079;52.704;13.814;2022-08-01T00:43:32;5.20;;;4.10;;
49241;SDS011;35079;52.704;13.814;2022-08-01T00:46:03;7.57;;;3.65;;
49241;SDS011;35079;52.704;13.814;2022-08-01T00:48:35;3.65;;;3.30;;
49241;SDS011;35079;52.704;13.814;2022-08-01T00:51:03;4.45;;;3.85;;
49241;SDS011;35079;52.704;13.814;2022-08-01T00:53:30;4.65;;;3.67;;
49241;SDS011;35079;52.704;13.814;2022-08-01T00:55:59;4.45;;;4.03;;
49241;SDS011;35079;52.704;13.814;2022-08-01T00:58:25;5.65;;;3.78;;
49241;SDS011;35079;52.704;13.814;2022-08-01T01:00:53;4.65;;;3.63;;
49241;SDS011;35079;52.704;13.814;2022-08-01T01:03:25;5.13;;;3.65;;
49241;SDS011;35079;52.704;13.814;2022-08-01T01:06:05;4.45;;;3.80;;
49241;SDS011;35079;52.704;13.814;2022-08-01T01:08:55;5.35;;;4.45;;
49241;SDS011;35079;52.704;13.814;2022-08-01T01:11:34;5.90;;;3.95;;
49241;SDS011;35079;52.704;13.814;2022-08-01T01:14:10;4.60;;;4.20;;
49241;SDS011;35079;52.704;13.814;2022-08-01T01:16:39;7.78;;;4.90;;
49241;SDS011;35079;52.704;13.814;2022-08-01T01:19:09;4.85;;;4.32;;
49241;SDS011;35079;52.704;13.814;2022-08-01T01:30:38;6.32;;;5.43;;
49241;SDS011;35079;52.704;13.814;2022-08-01T01:33:06;9.70;;;6.03;;
49241;SDS011;35079;52.704;13.814;2022-08-01T01:35:35;9.27;;;5.97;;
49241;SDS011;35079;52.704;13.814;2022-08-01T01:38:07;10.40;;;6.68;;
49241;SDS011;35079;52.704;13.814;2022-08-01T01:40:38;9.77;;;6.67;;
49241;SDS011;35079;52.704;13.814;2022-08-01T01:43:06;9.25;;;6.40;;
49241;SDS011;35079;52.704;13.814;2022-08-01T01:45:35;8.82;;;7.43;;
49241;SDS011;35079;52.704;13.814;2022-08-01T01:48:01;10.95;;;7.30;;
49241;SDS011;35079;52.704;13.814;2022-08-01T01:50:28;9.77;;;7.03;;
49241;SDS011;35079;52.704;13.814;2022-08-01T01:52:55;10.98;;;7.43;;
49241;SDS011;35079;52.704;13.814;2022-08-01T01:55:22;8.38;;;7.28;;
49241;SDS011;35079;52.704;13.814;2022-08-01T01:57:50;7.18;;;6.57;;
49241;SDS011;35079;52.704;13.814;2022-08-01T02:00:18;7.50;;;6.78;;
49241;SDS011;35079;52.704;13.814;2022-08-01T02:02:44;9.13;;;6.35;;
49241;SDS011;35079;52.704;13.814;2022-08-01T02:05:11;8.18;;;6.40;;
49241;SDS011;35079;52.704;13.814;2022-08-01T02:07:37;8.30;;;6.72;;
49241;SDS011;35079;52.704;13.814;2022-08-01T02:10:05;7.95;;;5.97;;
49241;SDS011;35079;52.704;13.814;2022-08-01T02:12:32;6.53;;;5.82;;
49241;SDS011;35079;52.704;13.814;2022-08-01T02:15:04;7.40;;;5.93;;
49241;SDS011;35079;52.704;13.814;2022-08-01T02:17:30;6.82;;;6.13;;
49241;SDS011;35079;52.704;13.814;2022-08-01T02:19:56;6.85;;;6.18;;
49241;SDS011;35079;52.704;13.814;2022-08-01T02:22:27;7.38;;;6.68;;
49241;SDS011;35079;52.704;13.814;2022-08-01T02:28:06;7.80;;;7.00;;
49241;SDS011;35079;52.704;13.814;2022-08-01T02:30:36;7.32;;;6.60;;
49241;SDS011;35079;52.704;13.814;2022-08-01T02:33:05;6.90;;;6.20;;
49241;SDS011;35079;52.704;13.814;2022-08-01T02:35:52;7.45;;;6.65;;
49241;SDS011;35079;52.704;13.814;2022-08-01T02:38:24;6.90;;;6.30;;
49241;SDS011;35079;52.704;13.814;2022-08-01T02:40:54;7.85;;;6.75;;
49241;SDS011;35079;52.704;13.814;2022-08-01T02:43:23;7.45;;;6.82;;
49241;SDS011;35079;52.704;13.814;2022-08-01T02:45:56;7.82;;;6.82;;
49241;SDS011;35079;52.704;13.814;2022-08-01T02:48:25;7.32;;;6.70;;
49241;SDS011;35079;52.704;13.814;2022-08-01T02:50:52;8.38;;;7.32;;
49241;SDS011;35079;52.704;13.814;2022-08-01T02:53:23;7.25;;;6.55;;
49241;SDS011;35079;52.704;13.814;2022-08-01T02:55:50;7.20;;;6.50;;
49241;SDS011;35079;52.704;13.814;2022-08-01T02:58:18;6.65;;;6.05;;
49241;SDS011;35079;52.704;13.814;2022-08-01T03:00:45;7.22;;;6.50;;
49241;SDS011;35079;52.704;13.814;2022-08-01T03:03:17;7.15;;;6.45;;
49241;SDS011;35079;52.704;13.814;2022-08-01T03:05:44;7.13;;;6.43;;
49241;SDS011;35079;52.704;13.814;2022-08-01T03:08:11;8.38;;;6.80;;
49241;SDS011;35079;52.704;13.814;2022-08-01T03:10:40;8.63;;;7.70;;
49241;SDS011;35079;52.704;13.814;2022-08-01T03:13:08;7.47;;;6.80;;
49241;SDS011;35079;52.704;13.814;2022-08-01T03:15:37;7.65;;;6.85;;
49241;SDS011;35079;52.704;13.814;2022-08-01T03:18:05;8.07;;;7.28;;
49241;SDS011;35079;52.704;13.814;2022-08-01T03:20:33;7.50;;;6.70;;
49241;SDS011;35079;52.704;13.814;2022-08-01T03:23:01;8.50;;;7.70;;
49241;SDS011;35079;52.704;13.814;2022-08-01T03:25:30;7.53;;;6.82;;
49241;SDS011;35079;52.704;13.814;2022-08-01T03:27:58;8.18;;;6.88;;
49241;SDS011;35079;52.704;13.814;2022-08-01T03:30:30;8.27;;;7.32;;
49241;SDS011;35079;52.704;13.814;2022-08-01T03:32:57;7.88;;;7.15;;
49241;SDS011;35079;52.704;13.814;2022-08-01T03:35:26;8.00;;;7.30;;
49241;SDS011;35079;52.704;13.814;2022-08-01T03:38:10;10.02;;;7.22;;
49241;SDS011;35079;52.704;13.814;2022-08-01T03:40:40;8.27;;;7.47;;
49241;SDS011;35079;52.704;13.814;2022-08-01T03:43:30;8.27;;;7.50;;
49241;SDS011;35079;52.704;13.814;2022-08-01T03:46:04;8.60;;;7.80;;
49241;SDS011;35079;52.704;13.814;2022-08-01T03:48:35;8.35;;;7.55;;
49241;SDS011;35079;52.704;13.814;2022-08-01T03:51:05;8.95;;;8.07;;
49241;SDS011;35079;52.704;13.814;2022-08-01T03:53:33;8.90;;;8.00;;
49241;SDS011;35079;52.704;13.814;2022-08-01T03:56:01;10.48;;;8.30;;
49241;SDS011;35079;52.704;13.814;2022-08-01T03:58:29;9.32;;;8.43;;
49241;SDS011;35079;52.704;13.814;2022-08-01T04:00:55;10.25;;;8.95;;
49241;SDS011;35079;52.704;13.814;2022-08-01T04:03:22;8.90;;;8.00;;
49241;SDS011;35079;52.704;13.814;2022-08-01T04:05:48;8.73;;;7.93;;
49241;SDS011;35079;52.704;13.814;2022-08-01T04:08:15;12.15;;;9.30;;
49241;SDS011;35079;52.704;13.814;2022-08-01T04:10:41;9.63;;;8.73;;
49241;SDS011;35079;52.704;13.814;2022-08-01T04:13:07;9.60;;;8.57;;
49241;SDS011;35079;52.704;13.814;2022-08-01T04:15:32;10.02;;;8.93;;
49241;SDS011;35079;52.704;13.814;2022-08-01T04:18:01;8.77;;;7.88;;
49241;SDS011;35079;52.704;13.814;2022-08-01T04:20:26;9.98;;;8.93;;
49241;SDS011;35079;52.704;13.814;2022-08-01T04:22:52;9.57;;;8.68;;
49241;SDS011;35079;52.704;13.814;2022-08-01T04:27:46;9.57;;;8.57;;
49241;SDS011;35079;52.704;13.814;2022-08-01T04:30:14;10.05;;;9.15;;
49241;SDS011;35079;52.704;13.814;2022-08-01T04:32:41;9.82;;;8.93;;
49241;SDS011;35079;52.704;13.814;2022-08-01T04:35:11;9.32;;;8.43;;
49241;SDS011;35079;52.704;13.814;2022-08-01T04:37:41;10.15;;;9.05;;
49241;SDS011;35079;52.704;13.814;2022-08-01T04:40:09;9.00;;;8.20;;
49241;SDS011;35079;52.704;13.814;2022-08-01T04:42:36;10.90;;;9.35;;
49241;SDS011;35079;52.704;13.814;2022-08-01T04:45:03;11.35;;;9.27;;
49241;SDS011;35079;52.704;13.814;2022-08-01T04:47:29;10.27;;;9.00;;
49241;SDS011;35079;52.704;13.814;2022-08-01T04:49:55;10.73;;;9.63;;
49241;SDS011;35079;52.704;13.814;2022-08-01T04:52:22;10.63;;;9.50;;
49241;SDS011;35079;52.704;13.814;2022-08-01T04:54:47;10.30;;;9.27;;
49241;SDS011;35079;52.704;13.814;2022-08-01T04:57:13;10.80;;;9.75;;
49241;SDS011;35079;52.704;13.814;2022-08-01T04:59:41;13.82;;;9.50;;
49241;SDS011;35079;52.704;13.814;2022-08-01T05:02:12;11.05;;;9.68;;
49241;SDS011;35079;52.704;13.814;2022-08-01T05:04:42;10.40;;;9.13;;
49241;SDS011;35079;52.704;13.814;2022-08-01T05:07:08;10.52;;;9.52;;
49241;SDS011;35079;52.704;13.814;2022-08-01T05:09:35;9.95;;;9.13;;
49241;SDS011;35079;52.704;13.814;2022-08-01T05:12:02;9.63;;;8.73;;
49241;SDS011;35079;52.704;13.814;2022-08-01T05:14:31;10.75;;;9.68;;
49241;SDS011;35079;52.704;13.814;2022-08-01T05:17:00;10.35;;;9.35;;
49241;SDS011;35079;52.704;13.814;2022-08-01T05:19:28;10.02;;;9.10;;
49241;SDS011;35079;52.704;13.814;2022-08-01T05:21:56;10.20;;;9.13;;
49241;SDS011;35079;52.704;13.814;2022-08-01T05:24:25;10.95;;;9.88;;
49241;SDS011;35079;52.704;13.814;2022-08-01T05:26:54;12.98;;;10.40;;
49241;SDS011;35079;52.704;13.814;2022-08-01T05:29:20;11.07;;;9.90;;
49241;SDS011;35079;52.704;13.814;2022-08-01T05:31:46;11.18;;;10.05;;
49241;SDS011;35079;52.704;13.814;2022-08-01T05:34:12;11.23;;;10.02;;
49241;SDS011;35079;52.704;13.814;2022-08-01T05:36:38;11.75;;;10.50;;
49241;SDS011;35079;52.704;13.814;2022-08-01T05:39:04;12.15;;;10.82;;
49241;SDS011;35079;52.704;13.814;2022-08-01T05:41:30;12.85;;;11.05;;
49241;SDS011;35079;52.704;13.814;2022-08-01T05:43:55;13.73;;;12.20;;
49241;SDS011;35079;52.704;13.814;2022-08-01T05:46:21;12.73;;;11.40;;
49241;SDS011;35079;52.704;13.814;2022-08-01T05:48:47;15.70;;;12.15;;
49241;SDS011;35079;52.704;13.814;2022-08-01T05:51:12;16.23;;;13.10;;
49241;SDS011;35079;52.704;13.814;2022-08-01T05:53:38;18.42;;;13.75;;
49241;SDS011;35079;52.704;13.814;2022-08-01T05:56:04;17.48;;;14.48;;
49241;SDS011;35079;52.704;13.814;2022-08-01T05:58:30;19.73;;;14.38;;
49241;SDS011;35079;52.704;13.814;2022-08-01T06:00:56;20.15;;;15.27;;
49241;SDS011;35079;52.704;13.814;2022-08-01T06:03:23;19.88;;;14.15;;
49241;SDS011;35079;52.704;13.814;2022-08-01T06:05:48;18.48;;;15.25;;
49241;SDS011;35079;52.704;13.814;2022-08-01T06:08:16;18.98;;;14.32;;
49241;SDS011;35079;52.704;13.814;2022-08-01T06:10:42;22.98;;;15.48;;
49241;SDS011;35079;52.704;13.814;2022-08-01T06:13:09;21.00;;;15.27;;
49241;SDS011;35079;52.704;13.814;2022-08-01T06:15:34;21.33;;;15.63;;
49241;SDS011;35079;52.704;13.814;2022-08-01T06:18:00;19.27;;;15.13;;
49241;SDS011;35079;52.704;13.814;2022-08-01T06:20:26;19.23;;;14.23;;
49241;SDS011;35079;52.704;13.814;2022-08-01T06:22:51;17.67;;;15.00;;
49241;SDS011;35079;52.704;13.814;2022-08-01T06:25:17;19.20;;;16.05;;
49241;SDS011;35079;52.704;13.814;2022-08-01T06:27:44;17.75;;;15.07;;
49241;SDS011;35079;52.704;13.814;2022-08-01T06:30:10;16.73;;;14.35;;
49241;SDS011;35079;52.704;13.814;2022-08-01T06:32:36;19.05;;;15.93;;
49241;SDS011;35079;52.704;13.814;2022-08-01T06:35:02;21.30;;;16.77;;
49241;SDS011;35079;52.704;13.814;2022-08-01T06:37:28;19.38;;;16.23;;
49241;SDS011;35079;52.704;13.814;2022-08-01T06:39:55;19.85;;;16.20;;
49241;SDS011;35079;52.704;13.814;2022-08-01T06:42:21;18.73;;;15.95;;
49241;SDS011;35079;52.704;13.814;2022-08-01T06:44:47;19.83;;;16.65;;
49241;SDS011;35079;52.704;13.814;2022-08-01T06:47:13;19.48;;;16.65;;
49241;SDS011;35079;52.704;13.814;2022-08-01T06:49:38;22.92;;;16.65;;
49241;SDS011;35079;52.704;13.814;2022-08-01T06:52:04;17.45;;;15.30;;
49241;SDS011;35079;52.704;13.814;2022-08-01T06:54:30;14.52;;;13.00;;
49241;SDS011;35079;52.704;13.814;2022-08-01T06:56:56;15.82;;;13.68;;
49241;SDS011;35079;52.704;13.814;2022-08-01T06:59:21;15.20;;;13.63;;
49241;SDS011;35079;52.704;13.814;2022-08-01T07:01:47;14.05;;;12.60;;
49241;SDS011;35079;52.704;13.814;2022-08-01T07:04:13;14.00;;;11.73;;
49241;SDS011;35079;52.704;13.814;2022-08-01T07:06:46;12.48;;;10.02;;
49241;SDS011;35079;52.704;13.814;2022-08-01T07:09:31;14.73;;;11.63;;
49241;SDS011;35079;52.704;13.814;2022-08-01T07:15:06;11.57;;;10.38;;
49241;SDS011;35079;52.704;13.814;2022-08-01T07:17:47;10.52;;;9.27;;
49241;SDS011;35079;52.704;13.814;2022-08-01T07:20:18;11.90;;;8.90;;
49241;SDS011;35079;52.704;13.814;2022-08-01T07:22:56;9.25;;;8.35;;
49241;SDS011;35079;52.704;13.814;2022-08-01T07:31:28;9.32;;;7.57;;
49241;SDS011;35079;52.704;13.814;2022-08-01T07:34:15;9.32;;;7.63;;
49241;SDS011;35079;52.704;13.814;2022-08-01T07:37:15;8.02;;;7.25;;
49241;SDS011;35079;52.704;13.814;2022-08-01T07:43:14;6.95;;;6.32;;
49241;SDS011;35079;52.704;13.814;2022-08-01T07:48:50;6.88;;;6.22;;
49241;SDS011;35079;52.704;13.814;2022-08-01T07:54:15;8.82;;;7.15;;
49241;SDS011;35079;52.704;13.814;2022-08-01T07:56:59;6.50;;;5.90;;
49241;SDS011;35079;52.704;13.814;2022-08-01T08:05:41;5.80;;;5.30;;
49241;SDS011;35079;52.704;13.814;2022-08-01T08:08:08;7.70;;;5.63;;
49241;SDS011;35079;52.704;13.814;2022-08-01T08:13:46;5.78;;;4.82;;
49241;SDS011;35079;52.704;13.814;2022-08-01T08:16:12;4.80;;;4.22;;
49241;SDS011;35079;52.704;13.814;2022-08-01T08:18:38;4.38;;;3.97;;
49241;SDS011;35079;52.704;13.814;2022-08-01T08:21:04;4.50;;;4.00;;
49241;SDS011;35079;52.704;13.814;2022-08-01T08:23:29;5.35;;;3.83;;
49241;SDS011;35079;52.704;13.814;2022-08-01T08:26:13;5.20;;;3.73;;
49241;SDS011;35079;52.704;13.814;2022-08-01T08:28:39;4.18;;;3.80;;
49241;SDS011;35079;52.704;13.814;2022-08-01T08:31:05;3.38;;;3.17;;
49241;SDS011;35079;52.704;13.814;2022-08-01T08:33:30;3.65;;;3.15;;
49241;SDS011;35079;52.704;13.814;2022-08-01T08:35:56;3.30;;;3.05;;
49241;SDS011;35079;52.704;13.814;2022-08-01T08:38:22;3.50;;;3.10;;
49241;SDS011;35079;52.704;13.814;2022-08-01T08:40:50;3.17;;;2.88;;
49241;SDS011;35079;52.704;13.814;2022-08-01T08:43:17;3.40;;;3.05;;
49241;SDS011;35079;52.704;13.814;2022-08-01T08:45:43;3.10;;;2.80;;
49241;SDS011;35079;52.704;13.814;2022-08-01T08:48:18;3.42;;;3.13;;
49241;SDS011;35079;52.704;13.814;2022-08-01T08:50:44;3.55;;;3.25;;
49241;SDS011;35079;52.704;13.814;2022-08-01T08:53:30;3.25;;;3.05;;
49241;SDS011;35079;52.704;13.814;2022-08-01T08:56:02;3.00;;;2.75;;
49241;SDS011;35079;52.704;13.814;2022-08-01T08:58:28;2.78;;;2.58;;
49241;SDS011;35079;52.704;13.814;2022-08-01T09:00:59;3.00;;;2.35;;
49241;SDS011;35079;52.704;13.814;2022-08-01T09:03:28;2.53;;;2.33;;
49241;SDS011;35079;52.704;13.814;2022-08-01T09:05:54;2.50;;;2.30;;
49241;SDS011;35079;52.704;13.814;2022-08-01T09:08:19;3.20;;;2.90;;
49241;SDS011;35079;52.704;13.814;2022-08-01T09:10:45;2.30;;;2.10;;
49241;SDS011;35079;52.704;13.814;2022-08-01T09:13:12;2.58;;;2.38;;
49241;SDS011;35079;52.704;13.814;2022-08-01T09:18:26;2.90;;;2.60;;
49241;SDS011;35079;52.704;13.814;2022-08-01T09:24:27;2.50;;;2.30;;
49241;SDS011;35079;52.704;13.814;2022-08-01T09:26:53;2.60;;;2.40;;
49241;SDS011;35079;52.704;13.814;2022-08-01T09:29:21;2.08;;;1.98;;
49241;SDS011;35079;52.704;13.814;2022-08-01T09:31:55;2.40;;;2.15;;
49241;SDS011;35079;52.704;13.814;2022-08-01T09:34:30;2.42;;;1.90;;
49241;SDS011;35079;52.704;13.814;2022-08-01T09:37:01;2.20;;;2.10;;
49241;SDS011;35079;52.704;13.814;2022-08-01T09:39:34;2.13;;;1.92;;
49241;SDS011;35079;52.704;13.814;2022-08-01T09:42:18;2.28;;;1.83;;
49241;SDS011;35079;52.704;13.814;2022-08-01T09:44:46;1.88;;;1.75;;
49241;SDS011;35079;52.704;13.814;2022-08-01T09:47:12;1.50;;;1.40;;
49241;SDS011;35079;52.704;13.814;2022-08-01T09:49:39;1.98;;;1.88;;
49241;SDS011;35079;52.704;13.814;2022-08-01T09:52:10;1.60;;;1.50;;
49241;SDS011;35079;52.704;13.814;2022-08-01T09:54:36;2.55;;;1.63;;
49241;SDS011;35079;52.704;13.814;2022-08-01T09:57:15;1.90;;;1.80;;
49241;SDS011;35079;52.704;13.814;2022-08-01T09:59:43;1.55;;;1.45;;
49241;SDS011;35079;52.704;13.814;2022-08-01T10:02:10;2.17;;;1.70;;
49241;SDS011;35079;52.704;13.814;2022-08-01T10:04:49;1.60;;;1.50;;
49241;SDS011;35079;52.704;13.814;2022-08-01T10:07:16;1.80;;;1.70;;
49241;SDS011;35079;52.704;13.814;2022-08-01T10:09:42;2.05;;;1.70;;
49241;SDS011;35079;52.704;13.814;2022-08-01T10:12:10;1.90;;;1.63;;
49241;SDS011;35079;52.704;13.814;2022-08-01T10:14:37;2.00;;;1.90;;
49241;SDS011;35079;52.704;13.814;2022-08-01T10:17:07;1.67;;;1.58;;
49241;SDS011;35079;52.704;13.814;2022-08-01T10:19:36;1.60;;;1.50;;
49241;SDS011;35079;52.704;13.814;2022-08-01T10:22:03;1.80;;;1.70;;
49241;SDS011;35079;52.704;13.814;2022-08-01T10:24:34;2.05;;;1.90;;
49241;SDS011;35079;52.704;13.814;2022-08-01T10:27:03;2.08;;;1.92;;
49241;SDS011;35079;52.704;13.814;2022-08-01T10:29:39;1.52;;;1.42;;
49241;SDS011;35079;52.704;13.814;2022-08-01T10:32:29;2.70;;;1.85;;
49241;SDS011;35079;52.704;13.814;2022-08-01T10:34:55;1.80;;;1.70;;
49241;SDS011;35079;52.704;13.814;2022-08-01T10:37:22;2.72;;;1.55;;
49241;SDS011;35079;52.704;13.814;2022-08-01T10:39:48;1.42;;;1.35;;
49241;SDS011;35079;52.704;13.814;2022-08-01T10:42:16;1.70;;;1.15;;
49241;SDS011;35079;52.704;13.814;2022-08-01T10:44:43;2.35;;;1.52;;
49241;SDS011;35079;52.704;13.814;2022-08-01T10:47:12;1.30;;;1.20;;
49241;SDS011;35079;52.704;13.814;2022-08-01T10:52:36;1.30;;;1.20;;
49241;SDS011;35079;52.704;13.814;2022-08-01T10:55:05;1.77;;;1.23;;
49241;SDS011;35079;52.704;13.814;2022-08-01T10:57:44;1.80;;;1.40;;
49241;SDS011;35079;52.704;13.814;2022-08-01T11:00:17;1.95;;;1.30;;
49241;SDS011;35079;52.704;13.814;2022-08-01T11:02:56;1.48;;;1.38;;
49241;SDS011;35079;52.704;13.814;2022-08-01T11:05:28;2.88;;;1.27;;
49241;SDS011;35079;52.704;13.814;2022-08-01T11:07:57;1.75;;;1.40;;
49241;SDS011;35079;52.704;13.814;2022-08-01T11:10:32;1.60;;;1.50;;
49241;SDS011;35079;52.704;13.814;2022-08-01T11:13:03;1.50;;;1.40;;
49241;SDS011;35079;52.704;13.814;2022-08-01T11:15:32;1.92;;;1.83;;
49241;SDS011;35079;52.704;13.814;2022-08-01T11:18:00;1.58;;;1.48;;
49241;SDS011;35079;52.704;13.814;2022-08-01T11:23:48;2.08;;;1.98;;
49241;SDS011;35079;52.704;13.814;2022-08-01T11:26:18;2.53;;;1.77;;
49241;SDS011;35079;52.704;13.814;2022-08-01T11:31:38;2.40;;;1.85;;
49241;SDS011;35079;52.704;13.814;2022-08-01T11:34:04;1.90;;;1.73;;
49241;SDS011;35079;52.704;13.814;2022-08-01T11:36:34;2.88;;;1.95;;
49241;SDS011;35079;52.704;13.814;2022-08-01T11:41:26;2.75;;;1.83;;
49241;SDS011;35079;52.704;13.814;2022-08-01T11:44:04;1.55;;;1.45;;
49241;SDS011;35079;52.704;13.814;2022-08-01T11:52:12;1.80;;;1.70;;
49241;SDS011;35079;52.704;13.814;2022-08-01T11:55:13;1.80;;;1.70;;
49241;SDS011;35079;52.704;13.814;2022-08-01T11:57:40;3.13;;;1.80;;
49241;SDS011;35079;52.704;13.814;2022-08-01T12:00:13;2.35;;;1.58;;
49241;SDS011;35079;52.704;13.814;2022-08-01T12:02:41;2.70;;;1.95;;
49241;SDS011;35079;52.704;13.814;2022-08-01T12:05:11;1.98;;;1.70;;
49241;SDS011;35079;52.704;13.814;2022-08-01T12:07:47;1.70;;;1.60;;
49241;SDS011;35079;52.704;13.814;2022-08-01T12:10:16;2.30;;;1.50;;
49241;SDS011;35079;52.704;13.814;2022-08-01T12:15:16;1.60;;;1.50;;
49241;SDS011;35079;52.704;13.814;2022-08-01T12:17:46;1.88;;;1.60;;
49241;SDS011;35079;52.704;13.814;2022-08-01T12:20:14;1.70;;;1.60;;
49241;SDS011;35079;52.704;13.814;2022-08-01T12:22:43;1.85;;;1.50;;
49241;SDS011;35079;52.704;13.814;2022-08-01T12:25:10;6.22;;;1.85;;
49241;SDS011;35079;52.704;13.814;2022-08-01T12:27:37;1.70;;;1.60;;
49241;SDS011;35079;52.704;13.814;2022-08-01T12:30:07;1.27;;;1.23;;
49241;SDS011;35079;52.704;13.814;2022-08-01T12:32:35;1.15;;;1.15;;
49241;SDS011;35079;52.704;13.814;2022-08-01T12:35:07;1.63;;;1.50;;
49241;SDS011;35079;52.704;13.814;2022-08-01T12:37:52;2.78;;;1.40;;
49241;SDS011;35079;52.704;13.814;2022-08-01T12:40:21;1.40;;;1.40;;
49241;SDS011;35079;52.704;13.814;2022-08-01T12:42:50;2.28;;;1.30;;
49241;SDS011;35079;52.704;13.814;2022-08-01T12:45:18;1.52;;;1.40;;
49241;SDS011;35079;52.704;13.814;2022-08-01T12:47:45;1.73;;;1.40;;
49241;SDS011;35079;52.704;13.814;2022-08-01T12:50:13;2.00;;;1.40;;
49241;SDS011;35079;52.704;13.814;2022-08-01T12:52:41;1.98;;;1.35;;
49241;SDS011;35079;52.704;13.814;2022-08-01T12:55:12;1.42;;;1.10;;
49241;SDS011;35079;52.704;13.814;2022-08-01T12:57:46;1.30;;;1.30;;
49241;SDS011;35079;52.704;13.814;2022-08-01T13:02:47;0.80;;;0.80;;
49241;SDS011;35079;52.704;13.814;2022-08-01T13:05:13;2.70;;;1.35;;
49241;SDS011;35079;52.704;13.814;2022-08-01T13:07:41;0.90;;;0.90;;
49241;SDS011;35079;52.704;13.814;2022-08-01T13:10:09;0.82;;;0.80;;
49241;SDS011;35079;52.704;13.814;2022-08-01T13:12:36;1.20;;;1.00;;
49241;SDS011;35079;52.704;13.814;2022-08-01T13:15:21;1.23;;;0.90;;
49241;SDS011;35079;52.704;13.814;2022-08-01T13:17:48;0.77;;;0.77;;
49241;SDS011;35079;52.704;13.814;2022-08-01T13:20:21;0.95;;;0.95;;
49241;SDS011;35079;52.704;13.814;2022-08-01T13:22:51;1.95;;;0.82;;
49241;SDS011;35079;52.704;13.814;2022-08-01T13:25:17;1.08;;;0.98;;
49241;SDS011;35079;52.704;13.814;2022-08-01T13:27:43;1.27;;;1.05;;
49241;SDS011;35079;52.704;13.814;2022-08-01T13:30:10;0.80;;;0.80;;
49241;SDS011;35079;52.704;13.814;2022-08-01T13:32:40;1.13;;;1.00;;
49241;SDS011;35079;52.704;13.814;2022-08-01T13:35:08;0.80;;;0.80;;
49241;SDS011;35079;52.704;13.814;2022-08-01T13:37:37;1.23;;;1.13;;
49241;SDS011;35079;52.704;13.814;2022-08-01T13:40:04;3.28;;;1.00;;
49241;SDS011;35079;52.704;13.814;2022-08-01T13:42:31;1.60;;;1.10;;
49241;SDS011;35079;52.704;13.814;2022-08-01T13:44:57;1.73;;;1.10;;
49241;SDS011;35079;52.704;13.814;2022-08-01T13:47:22;1.17;;;1.00;;
49241;SDS011;35079;52.704;13.814;2022-08-01T13:49:48;1.02;;;1.00;;
49241;SDS011;35079;52.704;13.814;2022-08-01T13:52:14;1.77;;;1.20;;
49241;SDS011;35079;52.704;13.814;2022-08-01T13:54:39;1.33;;;1.23;;
49241;SDS011;35079;52.704;13.814;2022-08-01T13:57:05;1.70;;;1.30;;
49241;SDS011;35079;52.704;13.814;2022-08-01T13:59:31;2.85;;;1.27;;
49241;SDS011;35079;52.704;13.814;2022-08-01T14:01:56;1.60;;;1.10;;
49241;SDS011;35079;52.704;13.814;2022-08-01T14:04:22;1.70;;;1.20;;
49241;SDS011;35079;52.704;13.814;2022-08-01T14:06:48;3.10;;;1.40;;
49241;SDS011;35079;52.704;13.814;2022-08-01T14:09:14;1.40;;;1.30;;
49241;SDS011;35079;52.704;13.814;2022-08-01T14:11:42;1.25;;;1.25;;
49241;SDS011;35079;52.704;13.814;2022-08-01T14:14:08;1.80;;;1.20;;
49241;SDS011;35079;52.704;13.814;2022-08-01T14:16:34;1.48;;;1.20;;
49241;SDS011;35079;52.704;13.814;2022-08-01T14:18:59;2.25;;;1.20;;
49241;SDS011;35079;52.704;13.814;2022-08-01T14:21:25;1.30;;;1.20;;
49241;SDS011;35079;52.704;13.814;2022-08-01T14:23:51;2.53;;;1.15;;
49241;SDS011;35079;52.704;13.814;2022-08-01T14:26:16;1.20;;;1.10;;
49241;SDS011;35079;52.704;13.814;2022-08-01T14:28:42;1.40;;;1.30;;
49241;SDS011;35079;52.704;13.814;2022-08-01T14:31:08;2.58;;;1.20;;
49241;SDS011;35079;52.704;13.814;2022-08-01T14:33:33;1.98;;;1.30;;
49241;SDS011;35079;52.704;13.814;2022-08-01T14:35:59;1.25;;;1.15;;
49241;SDS011;35079;52.704;13.814;2022-08-01T14:38:25;1.50;;;1.40;;
49241;SDS011;35079;52.704;13.814;2022-08-01T14:40:50;1.95;;;1.33;;
49241;SDS011;35079;52.704;13.814;2022-08-01T14:43:17;1.40;;;1.30;;
49241;SDS011;35079;52.704;13.814;2022-08-01T14:45:43;2.58;;;1.27;;
49241;SDS011;35079;52.704;13.814;2022-08-01T14:48:09;3.42;;;1.35;;
49241;SDS011;35079;52.704;13.814;2022-08-01T14:50:34;0.95;;;0.80;;
49241;SDS011;35079;52.704;13.814;2022-08-01T14:53:01;1.00;;;1.00;;
49241;SDS011;35079;52.704;13.814;2022-08-01T14:55:27;2.15;;;1.05;;
49241;SDS011;35079;52.704;13.814;2022-08-01T14:57:53;0.80;;;0.80;;
49241;SDS011;35079;52.704;13.814;2022-08-01T15:00:19;1.20;;;1.10;;
49241;SDS011;35079;52.704;13.814;2022-08-01T15:02:44;1.02;;;0.95;;
49241;SDS011;35079;52.704;13.814;2022-08-01T15:05:10;1.20;;;1.00;;
49241;SDS011;35079;52.704;13.814;2022-08-01T15:07:36;2.03;;;1.08;;
49241;SDS011;35079;52.704;13.814;2022-08-01T15:10:05;0.82;;;0.82;;
49241;SDS011;35079;52.704;13.814;2022-08-01T15:12:32;0.95;;;0.95;;
49241;SDS011;35079;52.704;13.814;2022-08-01T15:14:59;1.10;;;1.00;;
49241;SDS011;35079;52.704;13.814;2022-08-01T15:17:26;1.38;;;0.93;;
49241;SDS011;35079;52.704;13.814;2022-08-01T15:19:57;0.80;;;0.70;;
49241;SDS011;35079;52.704;13.814;2022-08-01T15:22:24;0.80;;;0.80;;
49241;SDS011;35079;52.704;13.814;2022-08-01T15:24:51;2.17;;;0.88;;
49241;SDS011;35079;52.704;13.814;2022-08-01T15:27:17;1.27;;;0.88;;
49241;SDS011;35079;52.704;13.814;2022-08-01T15:29:44;2.95;;;0.80;;
49241;SDS011;35079;52.704;13.814;2022-08-01T15:32:10;1.08;;;0.70;;
49241;SDS011;35079;52.704;13.814;2022-08-01T15:34:36;0.75;;;0.75;;
49241;SDS011;35079;52.704;13.814;2022-08-01T15:37:03;1.38;;;0.70;;
49241;SDS011;35079;52.704;13.814;2022-08-01T15:39:30;1.45;;;0.70;;
49241;SDS011;35079;52.704;13.814;2022-08-01T15:41:58;1.75;;;0.80;;
49241;SDS011;35079;52.704;13.814;2022-08-01T15:44:26;0.98;;;0.77;;
49241;SDS011;35079;52.704;13.814;2022-08-01T15:46:51;2.42;;;0.85;;
49241;SDS011;35079;52.704;13.814;2022-08-01T15:49:17;1.65;;;0.80;;
49241;SDS011;35079;52.704;13.814;2022-08-01T15:51:43;1.30;;;0.60;;